• Join FlightAware (Why Join?)
  • Login
  • US Flag 
05:54AM EDT


 

Airport Tracker/Info


-or-


 

Live Flight TrackerFlight Track Log ✈ ASH3732 ✈ 30-Jun-2013 ✈ KMIA - KIAD

Flight Track Log - Related Links

Times and Time Zones

All times are in EDT time to prevent confusion due to time zone crossing. See the ASH3732 flight status page for this flight to view local times or setup timezone preferences in your user account.

Time Position Orientation Groundspeed Altitude Reporting Facility
EDT Latitude Longitude Course Direction KTS MPH feet Rate Location/Type
09:03AM 25.7847 -80.3156 304° West 186 214 700  Level Miami Center
09:04AM 25.8250 -80.3814 304° West 202 232 2,700 2,040 Climbing Miami Center
09:05AM 25.9061 -80.3883 356° North 227 261 5,400 2,700 Climbing Miami Center
09:06AM 25.9875 -80.3978 354° North 255 293 8,100 2,580 Climbing Miami Center
09:07AM 26.0708 -80.4047 356° North 284 327 10,600 2,040 Climbing Miami Center
09:08AM 26.1603 -80.4144 354° North 304 350 12,200 1,500 Climbing Miami Center
09:09AM 26.2561 -80.4267 353° North 325 374 13,700 1,560 Climbing Miami Center
09:10AM 26.3478 -80.4339 356° North 359 413 15,400 1,620 Climbing Miami Center
09:11AM 26.4600 -80.4606 348° North 368 423 17,000 1,500 Climbing Miami Center
09:12AM 26.5531 -80.5006 339° North 384 442 18,500 1,560 Climbing Miami Center
09:13AM 26.6625 -80.5458 340° North 384 442 20,200 1,500 Climbing Miami Center
09:14AM 26.7556 -80.5836 340° North 384 442 21,500 1,260 Climbing Miami Center
09:15AM 26.8731 -80.6361 338° Northwest 390 449 22,800 960 Climbing Miami Center
09:16AM 26.9828 -80.6794 341° North 401 461 23,500 660 Climbing Miami Center
09:17AM 27.0942 -80.7250 340° North 414 476 24,200 780 Climbing Miami Center
09:18AM 27.2119 -80.7733 340° North 432 497 25,100 900 Climbing Miami Center
09:19AM 27.3303 -80.7961 350° North 437 503 26,100 900 Climbing Miami Center
09:20AM 27.4569 -80.8261 348° North 437 503 27,000 900 Climbing Miami Center
09:21AM 27.5792 -80.8539 349° North 442 509 27,900 840 Climbing Miami Center
09:22AM 27.7017 -80.8814 349° North 448 516 28,700 780 Climbing Miami Center
09:23AM 27.8303 -80.9119 348° North 454 522 29,500 720 Climbing Miami Center
09:24AM 27.9567 -80.9422 348° North 454 522 30,200 660 Climbing Miami Center
09:25AM 28.0831 -80.9725 348° North 459 528 30,900 660 Climbing Miami Center
09:26AM 28.2117 -81.0008 349° North 464 534 31,600 660 Climbing Miami Center
09:27AM 28.3444 -81.0317 348° North 476 548 32,300 660 Climbing Miami Center
09:28AM 28.4708 -81.0600 349° North 476 548 33,000 660 Climbing Miami Center
09:30AM 28.6153 -81.0975 347° North 475 547 33,800 720 Climbing Jacksonville Center
09:31AM 28.7450 -81.1283 348° North 475 547 34,500 720 Climbing Jacksonville Center
09:32AM 28.8728 -81.1594 348° North 469 540 35,300 720 Climbing Jacksonville Center
09:33AM 29.0025 -81.1903 348° North 469 540 36,000 660 Climbing Jacksonville Center
09:34AM 29.1303 -81.2192 349° North 469 540 36,700 480 Climbing Jacksonville Center
09:35AM 29.2581 -81.2503 348° North 464 534 37,000 120 Climbing Jacksonville Center
09:36AM 29.3900 -81.2814 348° North 478 550 37,000  Level Jacksonville Center
09:37AM 29.5050 -81.3106 348° North 484 557 37,000  Level Jacksonville Center
09:38AM 29.6392 -81.3442 348° North 479 551 37,000  Level Jacksonville Center
09:39AM 29.7731 -81.3731 349° North 479 551 37,000  Level Jacksonville Center
09:40AM 29.9050 -81.4047 348° North 484 557 37,000  Level Jacksonville Center
09:41AM 30.0431 -81.4386 348° North 489 563 37,000  Level Jacksonville Center
09:42AM 30.1772 -81.4725 348° North 489 563 37,000  Level Jacksonville Center
09:43AM 30.3131 -81.4994 350° North 489 563 37,000  Level Jacksonville Center
09:44AM 30.4531 -81.5022 359° North 489 563 37,000  Level Jacksonville Center
09:45AM 30.5908 -81.4906 North 489 563 37,000  Level Jacksonville Center
09:46AM 30.7306 -81.4786 North 494 568 37,000  Level Jacksonville Center
09:47AM 30.8683 -81.4694 North 494 568 37,000  Level Jacksonville Center
09:48AM 31.0081 -81.4600 North 494 568 37,000  Level Jacksonville Center
09:49AM 31.1458 -81.4483 North 494 568 37,000  Level Jacksonville Center
09:50AM 31.2853 -81.4317 North 499 574 37,000  Level Jacksonville Center
09:51AM 31.4289 -81.3878 15° North 491 565 37,000  Level Jacksonville Center
09:52AM 31.5558 -81.3567 12° North 491 565 37,000  Level Jacksonville Center
09:53AM 31.7036 -81.3175 13° North 496 571 37,000  Level Jacksonville Center
09:54AM 31.8431 -81.2808 13° North 501 577 37,000  Level Jacksonville Center
09:55AM 31.9825 -81.2442 13° North 508 585 37,000  Level Jacksonville Center
09:56AM 32.1197 -81.2050 14° North 503 579 37,000  Level Jacksonville Center
09:57AM 32.2442 -81.1289 27° Northeast 508 585 37,000  Level Jacksonville Center
09:58AM 32.3661 -81.0456 30° Northeast 503 579 37,000  Level Jacksonville Center
09:59AM 32.4858 -80.9569 32° Northeast 508 585 37,000  Level Jacksonville Center
10:00AM 32.6056 -80.8706 31° Northeast 502 578 37,000  Level Jacksonville Center
10:01AM 32.7025 -80.7992 32° Northeast 507 583 37,000  Level Jacksonville Center
10:02AM 32.8344 -80.7047 31° Northeast 507 583 37,000  Level Jacksonville Center
10:03AM 32.9561 -80.6150 32° Northeast 507 583 37,000  Level Jacksonville Center
10:04AM 33.0756 -80.5278 31° Northeast 507 583 37,000  Level Jacksonville Center
10:05AM 33.1989 -80.4400 31° Northeast 507 583 37,000  Level Jacksonville Center
10:06AM 33.3203 -80.3497 32° Northeast 507 583 37,000  Level Jacksonville Center
10:07AM 33.4417 -80.2592 32° Northeast 512 589 37,000  Level Jacksonville Center
10:08AM 33.5628 -80.1658 33° Northeast 512 589 37,000  Level Jacksonville Center
10:09AM 33.6839 -80.0747 32° Northeast 512 589 37,000  Level Jacksonville Center
10:10AM 33.8028 -79.9833 33° Northeast 512 589 37,000  Level Jacksonville Center
10:11AM 33.9261 -79.8942 31° Northeast 512 589 37,000  Level Jacksonville Center
10:13AM 34.1742 -79.7033 32° Northeast 500 575 37,000  Level Washington Center
10:14AM 34.3064 -79.6219 27° Northeast 512 589 37,000  Level Washington Center
10:15AM 34.4381 -79.5503 24° Northeast 512 589 37,000  Level Washington Center
10:16AM 34.5675 -79.4836 23° Northeast 507 583 37,000  Level Washington Center
10:17AM 34.7011 -79.4167 22° Northeast 507 583 37,000  Level Washington Center
10:18AM 34.8347 -79.3444 24° Northeast 507 583 37,000  Level Washington Center
10:19AM 34.9686 -79.2722 24° Northeast 507 583 37,000  Level Washington Center
10:20AM 35.1042 -79.2022 23° Northeast 512 589 37,000  Level Washington Center
10:21AM 35.2400 -79.1294 24° Northeast 517 595 37,000 -360 Level Washington Center
10:22AM 35.3736 -79.0589 23° Northeast 523 602 36,300 -1,200 Descending Washington Center
10:23AM 35.5111 -78.9858 23° Northeast 523 602 34,700 -1,560 Descending Washington Center
10:24AM 35.6467 -78.9147 23° Northeast 528 608 33,200 -900 Descending Washington Center
10:25AM 35.7994 -78.8289 24° Northeast 528 608 33,000 -420 Descending Washington Center
10:26AM 35.9347 -78.7550 24° Northeast 528 608 32,400 -1,320 Descending Washington Center
10:27AM 36.0725 -78.6758 25° Northeast 528 608 30,400 -2,040 Descending Washington Center
10:28AM 36.2081 -78.5986 25° Northeast 533 613 28,500 -1,860 Descending Washington Center
10:29AM 36.3436 -78.5214 25° Northeast 527 606 26,700 -1,260 Descending Washington Center
10:30AM 36.4747 -78.4461 25° Northeast 522 601 26,000 -540 Descending Washington Center
10:31AM 36.6036 -78.3733 24° Northeast 516 594 25,700 -1,020 Descending Washington Center
10:32AM 36.7222 -78.3025 26° Northeast 511 588 24,000 -1,740 Descending Washington Center
10:33AM 36.8511 -78.2292 24° Northeast 511 588 22,300 -1,020 Descending Washington Center
10:34AM 36.9864 -78.1453 26° Northeast 500 575 22,000 -180 Descending Washington Center
10:35AM 37.0919 -78.0889 23° Northeast 480 552 22,000  Level Washington Center
10:36AM 37.2122 -78.0172 25° Northeast 475 547 22,000  Level Washington Center
10:37AM 37.3367 -77.9428 25° Northeast 475 547 22,000  Level Washington Center
10:38AM 37.4633 -77.8708 24° Northeast 480 552 22,000 -60 Level Washington Center
10:39AM 37.5900 -77.7933 26° Northeast 491 565 21,900 -1,500 Descending Washington Center
10:40AM 37.7144 -77.7208 25° Northeast 486 559 19,000 -3,060 Descending Washington Center
10:41AM 37.8303 -77.6531 25° Northeast 475 547 15,900 -3,120 Descending Washington Center
10:42AM 37.9419 -77.5878 25° Northeast 449 517 12,900 -2,400 Descending Washington Center
10:43AM 38.0408 -77.5322 24° Northeast 415 478 11,100 -1,380 Descending Washington Center
10:44AM 38.1250 -77.4842 24° Northeast 366 421 10,200 -600 Descending Washington Center
10:45AM 38.2050 -77.4414 23° Northeast 324 373 10,000 -720 Descending Washington Center
10:46AM 38.2886 -77.4250 North 306 352 8,900 -1,200 Descending Washington Center
10:47AM 38.3722 -77.4111 North 300 345 7,600 -1,200 Descending Washington Center
10:48AM 38.4517 -77.3944 North 295 339 6,500 -1,200 Descending Washington Center
10:49AM 38.5311 -77.3778 North 295 339 5,200 -780 Descending Washington Center
10:50AM 38.6106 -77.3664 North 295 339 5,000 -660 Descending Washington Center
10:51AM 38.6981 -77.3633 North 290 334 4,000 -540 Descending Washington Center
10:52AM 38.7753 -77.3597 North 290 334 4,000  Level Washington Center
10:53AM 38.8667 -77.3500 North 279 321 4,000  Level Potomac TRACON
10:54AM 38.9500 -77.3500 360° North 278 320 4,000  Level Potomac TRACON
10:55AM 39.0167 -77.3500 360° North 279 321 4,000 -780 Level Potomac TRACON
10:56AM 39.1000 -77.3500 360° North 277 319 2,600 -780 Descending Potomac TRACON
10:57AM 39.1667 -77.3500 360° North 230 265 2,500 -60 Descending Potomac TRACON
10:58AM 39.2000 -77.4000 311° West 229 264 2,500 -300 Level Potomac TRACON
10:59AM 39.1500 -77.4333 207° Southwest 214 246 2,000 -300 Descending Potomac TRACON
11:00AM 39.1000 -77.4333 180° South 209 241 2,000  Level Potomac TRACON
11:01AM 39.0500 -77.4333 180° South 208 239 2,000 -420 Level Potomac TRACON
11:02AM 39.0000 -77.4333 180° South 140 161 1,300 -720 Descending Potomac TRACON
11:03AM 38.9667 -77.4333 180° South 134 154 600 -720 Descending Potomac TRACON
11:05AM 38.9474 -77.4599 191° South  Level Estimated
11:12AM 38.9474 -77.4599 191° South  Level Estimated
11:13AM 38.9474 -77.4599 191° South  Level Estimated
11:14AM 38.9474 -77.4599 191° South  Level Estimated
11:15AM 38.9474 -77.4599 191° South  Level Estimated
11:16AM 38.9474 -77.4599 191° South  Level Estimated